Flight Track Log - Related Links

Times and Time Zones

All times are in EDT time to prevent confusion due to time zone crossing. See the ASQ4577 flight status page for this flight to view local times or setup timezone preferences in your user account.

Time Position Orientation Groundspeed Altitude Reporting Facility
EDT Latitude Longitude Course Direction KTS MPH feet Rate Location/Type
Wed 09:37:24 PM 41.3939 -81.8814 73° East 161 185 2,000  Level Cleveland Center
Wed 09:39:00 PM 41.4158 -81.9619 290° West 181 208 5,300 2,308 Climbing Cleveland Center
Wed 09:40:00 PM 41.7570 -81.4931 37° Northeast  Level FlightAware Approximate
Wed 09:40:00 PM 41.4625 -81.9047 43° Northeast 118 136 8,000  Level Cleveland Center
Wed 09:40:59 PM 41.5008 -81.8253 57° Northeast 202 232 9,900 1,550 Climbing Cleveland Center
Wed 09:41:00 PM 41.8333 -81.3942 90° East  Level FlightAware Approximate
Wed 09:42:00 PM 41.8507 -81.2469 73° East  Level FlightAware Approximate
Wed 09:42:00 PM 41.5683 -81.7406 43° Northeast 272 313 11,100  Level Cleveland Center
Wed 09:42:59 PM 41.6444 -81.6528 41° Northeast 333 383 12,200 1,350 Climbing Cleveland Center
Wed 09:44:00 PM 41.7203 -81.5594 43° Northeast 360 414 13,800 1,550 Climbing Cleveland Center
Wed 09:44:59 PM 41.8003 -81.4661 41° Northeast 373 429 15,300 1,563 Climbing Cleveland Center
Wed 09:45:59 PM 41.8489 -81.3469 61° Northeast 367 422 16,900 1,587 Climbing Cleveland Center
Wed 09:47:00 PM 41.8728 -81.2022 77° East 375 432 18,500 1,438 Climbing Cleveland Center
Wed 09:48:00 PM 41.8964 -81.0544 78° East 395 455 19,800 1,210 Climbing Cleveland Center
Wed 09:48:59 PM 41.9200 -80.9097 78° East 395 455 20,900 1,000 Climbing Cleveland Center
Wed 09:50:00 PM 41.9411 -80.7731 78° East 407 468 21,800 1,000 Climbing Cleveland Center
Wed 09:50:59 PM 41.9661 -80.6111 78° East 426 490 22,900 1,050 Climbing Cleveland Center
Wed 09:52:00 PM 41.9911 -80.4519 78° East 435 501 23,900 1,050 Climbing Cleveland Center
Wed 09:52:59 PM 42.0181 -80.2897 77° East 435 501 25,000 1,050 Climbing Cleveland Center
Wed 09:54:00 PM 42.0425 -80.1219 79° East 448 516 26,000 1,041 Climbing Cleveland Center
Wed 09:55:00 PM 42.0708 -79.9369 78° East 454 522 27,100 1,109 Climbing Cleveland Center
Wed 09:55:59 PM 42.0967 -79.7717 78° East 449 517 28,200 1,050 Climbing Cleveland Center
Wed 09:57:00 PM 42.1206 -79.6033 79° East 449 517 29,200 1,050 Climbing Cleveland Center
Wed 09:57:59 PM 42.1439 -79.4378 79° East 449 517 30,300 900 Climbing Cleveland Center
Wed 09:59:00 PM 42.1672 -79.2806 79° East 454 522 31,000 347 Climbing Cleveland Center
Wed 10:00:00 PM 42.1922 -79.1033 79° East 465 535 31,000  Level Cleveland Center
Wed 10:00:59 PM 42.2147 -78.9178 81° East 483 556 31,000  Level Cleveland Center
Wed 10:01:59 PM 42.2408 -78.7181 80° East 488 562 31,000  Level Cleveland Center
Wed 10:02:59 PM 42.2650 -78.5378 80° East 488 562 31,000  Level Cleveland Center
Wed 10:03:59 PM 42.2867 -78.3547 81° East 488 562 31,000  Level Cleveland Center
Wed 10:04:59 PM 42.3061 -78.1883 81° East 493 567 31,000  Level Cleveland Center
Wed 10:06:00 PM 42.3272 -78.0050 81° East 493 567 31,000  Level Cleveland Center
Wed 10:06:59 PM 42.3500 -77.8186 81° East 493 567 31,000 -150 Level Cleveland Center
Wed 10:08:00 PM 42.3706 -77.6378 81° East 493 567 30,700 -595 Descending Cleveland Center
Wed 10:09:00 PM 42.3928 -77.4539 81° East 493 567 29,800 -515 Descending Cleveland Center
Wed 10:11:18 PM 42.4417 -77.0128 81° East 498 573 29,000 -242 Descending Boston Center
Wed 10:12:18 PM 42.4614 -76.8311 82° East 498 573 29,000  Level Boston Center
Wed 10:13:18 PM 42.4831 -76.6467 81° East 498 573 29,000  Level Boston Center
Wed 10:14:18 PM 42.5003 -76.4592 83° East 498 573 29,000  Level Boston Center
Wed 10:15:18 PM 42.5214 -76.2717 81° East 498 573 29,000  Level Boston Center
Wed 10:16:18 PM 42.5400 -76.0811 82° East 498 573 29,000 -45 Level Boston Center
Wed 10:17:30 PM 42.5583 -75.8933 82° East 498 573 28,900 -591 Descending Boston Center
Wed 10:18:30 PM 42.5819 -75.6633 82° East 503 579 27,700 -1,450 Descending Boston Center
Wed 10:19:30 PM 42.5969 -75.4919 83° East 513 590 26,000 -1,350 Descending Boston Center
Wed 10:20:30 PM 42.6164 -75.3094 82° East 497 572 25,000 -1,050 Descending Boston Center
Wed 10:21:30 PM 42.6333 -75.1297 83° East 491 565 23,900 -1,850 Descending Boston Center
Wed 10:22:30 PM 42.6497 -74.9581 83° East 475 547 21,300 -2,935 Descending Boston Center
Wed 10:23:02 PM 42.6583 -74.8428 84° East 449 517 19,400 -3,212 Descending Boston Center
Wed 10:24:09 PM 42.6722 -74.6767 83° East 406 467 16,000 -3,024 Descending Boston Center
Wed 10:25:09 PM 42.6875 -74.5331 82° East 383 441 13,000 -2,543 Descending Boston Center
Wed 10:25:41 PM 42.6906 -74.4767 86° East 386 444 12,100 -1,613 Descending Boston Center
Wed 10:26:42 PM 42.7369 -74.3314 66° East 348 400 10,500 -1,636 Descending Boston Center
Wed 10:27:42 PM 42.7719 -74.2278 65° Northeast 319 367 8,800 -1,900 Descending Boston Center
Wed 10:28:42 PM 42.8047 -74.1239 67° East 291 335 6,700 -1,700 Descending Boston Center
Wed 10:29:42 PM 42.8331 -74.0369 66° East 284 327 5,400 -1,300 Descending Boston Center
Wed 10:30:42 PM 42.8594 -73.9442 69° East 273 314 4,100 -1,150 Descending Boston Center
Wed 10:31:42 PM 42.8836 -73.8456 71° East 246 283 3,100 -950 Descending Boston Center
Wed 10:32:42 PM 42.8486 -73.8108 144° Southeast 193 222 2,200 -550 Descending Boston Center
Wed 10:33:42 PM 42.8369 -73.7425 103° East 164 189 2,000 10,400 Descending Boston Center
Wed 10:34:42 PM 42.8272 -73.6800 102° East 164 189 23,000 10,500 Climbing Boston Center
Wed 10:35:42 PM 42.8175 -73.6147 101° East 164 189 23,000  Level Boston Center
Wed 10:36:42 PM 42.8075 -73.5522 102° East 164 189 23,000  Level Boston Center
Wed 10:37:42 PM 42.8056 -73.5381 101° East 164 189 23,000  Level Boston Center
Wed 10:39:00 PM 42.7680 -73.7142 254° West  Level Estimated
Wed 10:46:00 PM 42.7491 -73.8020 254° West  Level Estimated
Wed 10:47:00 PM 42.7491 -73.8020 304° West  Level Estimated
Wed 10:48:00 PM 42.7491 -73.8020 304° West  Level Estimated
Wed 10:49:00 PM 42.7491 -73.8020 304° West  Level Estimated
Wed 10:50:00 PM 42.7491 -73.8020 304° West  Level Estimated
Wed 10:51:00 PM 42.7491 -73.8020 304° West  Level Estimated
Wed 10:52:00 PM 42.7491 -73.8020 304° West  Level Estimated
Wed 10:53:00 PM 42.7491 -73.8020 304° West  Level Estimated
Wed 10:54:00 PM 42.7491 -73.8020 304° West  Level Estimated

Login

Don't have an account? Register now (free) for customized features, flight alerts, and more!